createdAt,value
2023-01-15T00:00:15.518Z,98482.09
2023-01-15T00:04:18.198Z,98485.34
2023-01-15T00:08:20.005Z,98468.91
2023-01-15T00:12:21.835Z,98468.81
2023-01-15T00:16:24.926Z,98458.53
2023-01-15T00:20:26.649Z,98445.66
2023-01-15T00:24:47.124Z,98459.41
2023-01-15T00:28:49.075Z,98460.75
2023-01-15T00:32:51.048Z,98444.09
2023-01-15T00:36:52.938Z,98445.16
2023-01-15T00:40:54.656Z,98423.94
2023-01-15T00:44:56.792Z,98410.69
2023-01-15T00:48:58.872Z,98402.28
2023-01-15T00:53:03.025Z,98386.53
2023-01-15T00:57:04.968Z,98397.66
2023-01-15T01:01:06.935Z,98392.56
2023-01-15T01:05:09.282Z,98388.44
2023-01-15T01:09:16.196Z,98374.44
2023-01-15T01:13:17.872Z,98389.81
2023-01-15T01:17:19.632Z,98368.44
2023-01-15T01:21:21.584Z,98364.19
2023-01-15T01:25:23.300Z,98360.38
2023-01-15T01:29:25.356Z,98384.72
2023-01-15T01:33:27.065Z,98369.59
2023-01-15T01:37:28.829Z,98364.28
2023-01-15T01:41:30.704Z,98355.47
2023-01-15T01:45:33.383Z,98369.13
2023-01-15T01:49:36.114Z,98356.50
2023-01-15T01:53:37.911Z,98369.31
2023-01-15T01:57:39.738Z,98356.91
2023-01-15T02:01:41.603Z,98354.47
2023-01-15T02:05:47.638Z,98338.50
2023-01-15T02:09:49.429Z,98335.44
2023-01-15T02:13:58.861Z,98323.88
2023-01-15T02:18:32.333Z,98338.00
2023-01-15T02:23:11.232Z,98310.00
2023-01-15T02:27:18.511Z,98306.34
2023-01-15T02:31:39.441Z,98322.78
2023-01-15T02:36:00.823Z,98327.84
2023-01-15T02:40:02.635Z,98317.56
2023-01-15T02:44:04.727Z,98310.63
2023-01-15T02:48:17.333Z,98303.78
2023-01-15T02:52:29.260Z,98294.28
2023-01-15T02:56:32.297Z,98278.47
2023-01-15T03:00:36.625Z,98267.78
2023-01-15T03:05:02.982Z,98278.88
2023-01-15T03:09:06.128Z,98276.06
2023-01-15T03:13:08.588Z,98274.53
2023-01-15T03:17:22.926Z,98257.16
2023-01-15T03:21:56.648Z,98263.63
2023-01-15T03:26:01.118Z,98256.44
2023-01-15T03:30:17.391Z,98254.63
2023-01-15T03:34:19.574Z,98237.69
2023-01-15T03:38:23.776Z,98226.97
2023-01-15T03:42:47.246Z,98224.16
2023-01-15T03:47:14.669Z,98233.84
2023-01-15T03:51:30.241Z,98218.84
2023-01-15T03:55:42.152Z,98227.94
2023-01-15T03:59:59.443Z,98222.97
2023-01-15T04:04:03.675Z,98204.81
2023-01-15T04:08:05.454Z,98222.56
2023-01-15T04:12:07.759Z,98221.38
2023-01-15T04:16:09.830Z,98225.38
2023-01-15T04:20:11.895Z,98220.34
2023-01-15T04:24:13.631Z,98224.19
2023-01-15T04:28:15.431Z,98212.50
2023-01-15T04:32:17.205Z,98199.16
2023-01-15T04:36:19.045Z,98204.00
2023-01-15T04:40:39.218Z,98198.38
2023-01-15T04:44:40.948Z,98186.25
2023-01-15T04:48:42.660Z,98187.25
2023-01-15T04:52:44.550Z,98173.78
2023-01-15T04:56:50.310Z,98163.97
2023-01-15T05:00:52.022Z,98157.50
2023-01-15T05:04:53.770Z,98145.44
2023-01-15T05:08:55.639Z,98148.06
2023-01-15T05:12:57.489Z,98151.50
2023-01-15T05:16:59.309Z,98150.47
2023-01-15T05:21:01.008Z,98150.31
2023-01-15T05:25:02.772Z,98153.50
2023-01-15T05:29:04.901Z,98143.44
2023-01-15T05:33:06.749Z,98153.53
2023-01-15T05:37:08.477Z,98137.78
2023-01-15T05:41:57.099Z,98149.47
2023-01-15T05:46:02.402Z,98147.69
2023-01-15T05:50:04.851Z,98140.00
2023-01-15T05:54:08.403Z,98137.81
2023-01-15T05:58:10.203Z,98137.59
2023-01-15T06:02:12.088Z,98146.69
2023-01-15T06:06:15.163Z,98143.28
2023-01-15T06:10:18.280Z,98137.63
2023-01-15T06:14:24.283Z,98141.03
2023-01-15T06:18:26.069Z,98144.88
2023-01-15T06:22:27.865Z,98124.31
2023-01-15T06:26:31.830Z,98128.31
2023-01-15T06:30:36.872Z,98139.66
2023-01-15T06:34:44.531Z,98223.94
2023-01-15T06:38:46.355Z,98245.81
2023-01-15T06:43:06.325Z,98268.38
2023-01-15T06:47:22.109Z,98289.22
2023-01-15T06:51:25.139Z,98333.44
2023-01-15T06:55:26.998Z,98367.53
2023-01-15T06:59:28.908Z,98368.84
2023-01-15T07:03:30.769Z,98389.06
2023-01-15T07:07:32.659Z,98398.81
2023-01-15T07:11:34.377Z,98396.00
2023-01-15T07:15:38.925Z,98413.16
2023-01-15T07:19:40.775Z,98420.13
2023-01-15T07:23:42.616Z,98430.38
2023-01-15T07:27:46.679Z,98425.50
2023-01-15T07:31:48.445Z,98438.50
2023-01-15T07:35:50.179Z,98455.72
2023-01-15T07:39:52.032Z,98473.56
2023-01-15T07:44:12.275Z,98466.13
2023-01-15T07:48:32.243Z,98486.78
2023-01-15T07:52:33.971Z,98513.41
2023-01-15T07:56:36.167Z,98517.00
2023-01-15T08:00:37.936Z,98523.16
2023-01-15T08:04:45.483Z,98508.84
2023-01-15T08:08:47.556Z,98518.56
2023-01-15T08:13:16.048Z,98528.81
2023-01-15T08:17:17.858Z,98529.81
2023-01-15T08:21:21.548Z,98526.75
2023-01-15T08:25:24.732Z,98541.38
2023-01-15T08:29:26.511Z,98546.25
2023-01-15T08:33:28.552Z,98536.81
2023-01-15T08:37:30.355Z,98525.13
2023-01-15T08:41:32.320Z,98521.22
2023-01-15T08:45:34.149Z,98507.25
2023-01-15T08:49:36.005Z,98518.13
2023-01-15T08:53:38.748Z,98500.28
2023-01-15T08:57:40.487Z,98531.78
2023-01-15T09:01:45.781Z,98549.03
2023-01-15T09:05:50.604Z,98552.41
2023-01-15T09:09:52.476Z,98555.03
2023-01-15T09:13:54.525Z,98543.47
2023-01-15T09:17:58.621Z,98544.94
2023-01-15T09:22:00.334Z,98562.16
2023-01-15T09:26:08.073Z,98565.28
2023-01-15T09:30:16.288Z,98560.22
2023-01-15T09:34:18.186Z,98571.63
2023-01-15T09:38:21.509Z,98572.41
2023-01-15T09:42:36.632Z,98563.47
2023-01-15T09:47:05.149Z,98564.28
2023-01-15T09:51:26.998Z,98563.47
2023-01-15T09:55:32.596Z,98558.94
2023-01-15T09:59:39.243Z,98551.78
2023-01-15T10:03:49.041Z,98530.97
2023-01-15T10:08:12.051Z,98530.97
2023-01-15T10:12:36.400Z,98535.03
2023-01-15T10:16:38.208Z,98549.50
2023-01-15T10:21:07.450Z,98555.53
2023-01-15T10:25:15.780Z,98550.00
2023-01-15T10:29:39.304Z,98572.28
2023-01-15T10:34:12.462Z,98562.69
2023-01-15T10:38:54.189Z,98564.78
2023-01-15T10:43:24.934Z,98579.09
2023-01-15T10:47:37.048Z,98582.22
2023-01-15T10:52:07.066Z,98584.66
2023-01-15T10:56:25.933Z,98591.63
2023-01-15T11:00:27.823Z,98601.56
2023-01-15T11:04:31.639Z,98587.72
2023-01-15T11:13:45.901Z,98586.75
2023-01-15T11:18:09.469Z,98584.94
2023-01-15T11:22:14.823Z,98571.13
2023-01-15T11:26:25.816Z,98576.34
2023-01-15T11:30:33.726Z,98574.53
2023-01-15T11:34:38.644Z,98585.94
2023-01-15T11:38:48.334Z,98570.63
2023-01-15T11:43:09.757Z,98574.25
2023-01-15T11:47:31.676Z,98583.66
2023-01-15T11:51:44.436Z,98572.09
2023-01-15T11:56:00.809Z,98581.53
2023-01-15T12:00:06.716Z,98567.88
2023-01-15T12:04:27.199Z,98566.59
2023-01-15T12:09:00.547Z,98574.22
2023-01-15T12:13:08.831Z,98576.00
2023-01-15T12:17:40.333Z,98569.84
2023-01-15T12:22:26.570Z,98559.59
2023-01-15T12:26:33.662Z,98562.81
2023-01-15T12:30:53.115Z,98563.47
2023-01-15T12:35:05.291Z,98553.06
2023-01-15T12:39:23.106Z,98549.19
2023-01-15T12:43:46.798Z,98549.50
2023-01-15T12:48:14.135Z,98554.88
2023-01-15T12:52:28.529Z,98543.31
2023-01-15T12:57:02.832Z,98544.44
2023-01-15T13:01:21.812Z,98564.00
2023-01-15T13:05:57.876Z,98569.84
2023-01-15T13:10:31.054Z,98574.88
2023-01-15T13:14:35.633Z,98588.72
2023-01-15T13:19:13.157Z,98570.00
2023-01-15T13:23:38.706Z,98582.34
2023-01-15T13:28:13.682Z,98566.25
2023-01-15T13:32:25.877Z,98568.19
2023-01-15T13:36:33.873Z,98587.56
2023-01-15T13:40:44.535Z,98596.03
2023-01-15T13:44:52.134Z,98622.53
2023-01-15T13:48:56.438Z,98595.84
2023-01-15T13:53:15.099Z,98599.91
2023-01-15T13:57:37.555Z,98587.56
2023-01-15T14:01:42.701Z,98596.66
2023-01-15T14:05:59.792Z,98580.06
2023-01-15T14:10:56.011Z,98592.91
2023-01-15T14:15:40.910Z,98579.25
2023-01-15T14:20:13.074Z,98563.13
2023-01-15T14:25:12.422Z,98593.38
2023-01-15T14:29:55.829Z,98651.91
2023-01-15T14:34:18.671Z,98634.97
2023-01-15T14:38:23.650Z,98655.88
2023-01-15T14:42:57.314Z,98649.03
2023-01-15T14:47:06.639Z,98656.13
2023-01-15T14:51:14.850Z,98657.19
2023-01-15T14:55:19.633Z,98673.63
2023-01-15T14:59:49.708Z,98664.16
2023-01-15T15:04:16.387Z,98667.94
2023-01-15T15:08:19.014Z,98654.59
2023-01-15T15:12:44.987Z,98641.78
2023-01-15T15:16:48.314Z,98675.53
2023-01-15T15:20:59.046Z,98664.56
2023-01-15T15:25:02.749Z,98655.72
2023-01-15T15:29:13.348Z,98651.59
2023-01-15T15:33:29.995Z,98669.81
2023-01-15T15:37:32.809Z,98677.47
2023-01-15T15:41:54.896Z,98658.31
2023-01-15T15:46:16.100Z,98686.28
2023-01-15T15:50:33.179Z,98686.78
2023-01-15T15:54:46.711Z,98682.53
2023-01-15T15:58:51.440Z,98710.00
2023-01-15T16:03:57.612Z,98734.09
2023-01-15T16:09:10.000Z,98736.31
2023-01-15T16:14:18.707Z,98721.44
2023-01-15T16:18:36.496Z,98730.75
2023-01-15T16:22:38.685Z,98714.81
2023-01-15T16:26:49.579Z,98747.84
2023-01-15T16:31:35.017Z,98760.84
2023-01-15T16:35:49.267Z,98748.78
2023-01-15T16:39:58.192Z,98771.84
2023-01-15T16:44:13.158Z,98763.47
2023-01-15T16:48:27.644Z,98762.31
2023-01-15T16:52:50.412Z,98776.19
2023-01-15T16:56:56.678Z,98778.44
2023-01-15T17:00:58.833Z,98787.44
2023-01-15T17:05:05.536Z,98817.72
2023-01-15T17:09:18.812Z,98818.41
2023-01-15T17:13:31.354Z,98824.06
2023-01-15T17:17:34.993Z,98836.47
2023-01-15T17:21:37.988Z,98838.81
2023-01-15T17:25:43.093Z,98835.25
2023-01-15T17:29:45.095Z,98836.06
2023-01-15T17:33:47.334Z,98846.31
2023-01-15T17:37:49.427Z,98838.81
2023-01-15T17:41:57.602Z,98836.22
2023-01-15T17:46:09.977Z,98833.00
2023-01-15T17:50:20.256Z,98828.34
2023-01-15T17:54:46.056Z,98833.22
2023-01-15T17:59:09.624Z,98843.06
2023-01-15T18:03:36.365Z,98841.69
2023-01-15T18:07:44.667Z,98825.22
2023-01-15T18:12:18.140Z,98829.03
2023-01-15T18:17:05.974Z,98826.28
2023-01-15T18:22:15.126Z,98822.06
2023-01-15T18:26:38.516Z,98822.88
2023-01-15T18:31:03.767Z,98817.59
2023-01-15T18:40:00.276Z,98828.16
2023-01-15T18:44:44.895Z,98835.25
2023-01-15T18:48:47.203Z,98842.53
2023-01-15T18:52:52.165Z,98852.97
2023-01-15T18:56:56.983Z,98828.19
2023-01-15T19:01:13.400Z,98819.50
2023-01-15T19:05:17.260Z,98801.25
2023-01-15T19:09:27.031Z,98803.16
2023-01-15T19:13:29.143Z,98797.53
2023-01-15T19:18:02.845Z,98805.03
2023-01-15T19:22:23.414Z,98790.31
2023-01-15T19:26:25.402Z,98797.25
2023-01-15T19:30:27.778Z,98790.84
2023-01-15T19:34:34.143Z,98794.44
2023-01-15T19:38:41.286Z,98790.88
2023-01-15T19:43:01.358Z,98786.50
2023-01-15T19:47:21.985Z,98774.50
2023-01-15T19:51:43.774Z,98772.06
2023-01-15T19:55:45.878Z,98775.88
2023-01-15T19:59:48.745Z,98772.31
2023-01-15T20:03:50.544Z,98765.66
2023-01-15T20:07:54.008Z,98764.69
2023-01-15T20:12:14.075Z,98760.59
2023-01-15T20:16:22.315Z,98752.56
2023-01-15T20:20:25.201Z,98759.25
2023-01-15T20:24:27.090Z,98742.09
2023-01-15T20:28:28.925Z,98748.88
2023-01-15T20:32:30.740Z,98746.28
2023-01-15T20:36:34.775Z,98761.09
2023-01-15T20:40:36.861Z,98732.00
2023-01-15T20:44:53.946Z,98751.59
2023-01-15T20:49:14.156Z,98747.09
2023-01-15T20:53:15.885Z,98739.31
2023-01-15T20:57:17.659Z,98744.22
2023-01-15T21:01:24.957Z,98741.44
2023-01-15T21:05:26.851Z,98749.66
2023-01-15T21:09:28.750Z,98725.25
2023-01-15T21:13:31.168Z,98729.31
2023-01-15T21:17:33.317Z,98722.06
2023-01-15T21:21:35.282Z,98739.22
2023-01-15T21:25:38.561Z,98738.44
2023-01-15T21:29:42.573Z,98756.53
2023-01-15T21:33:44.578Z,98766.22
2023-01-15T21:37:46.455Z,98761.81
2023-01-15T21:42:08.803Z,98768.34
2023-01-15T21:46:10.869Z,98772.63
2023-01-15T21:50:12.730Z,98772.28
2023-01-15T21:54:14.650Z,98772.09
2023-01-15T21:58:16.688Z,98769.50
2023-01-15T22:02:23.994Z,98772.78
2023-01-15T22:06:28.071Z,98761.72
2023-01-15T22:10:30.311Z,98783.09
2023-01-15T22:14:32.816Z,98773.63
2023-01-15T22:18:34.745Z,98777.28
2023-01-15T22:22:39.061Z,98768.03
2023-01-15T22:26:43.843Z,98771.38
2023-01-15T22:30:46.038Z,98763.63
2023-01-15T22:34:48.033Z,98771.41
2023-01-15T22:38:54.764Z,98766.09
2023-01-15T22:42:59.144Z,98764.22
2023-01-15T22:47:02.340Z,98762.28
2023-01-15T22:51:04.359Z,98759.22
2023-01-15T22:55:07.077Z,98758.63
2023-01-15T22:59:09.952Z,98761.22
2023-01-15T23:03:12.121Z,98762.56
2023-01-15T23:07:13.858Z,98758.00
2023-01-15T23:11:16.260Z,98762.47
2023-01-15T23:15:18.099Z,98751.91
2023-01-15T23:19:20.005Z,98744.72
2023-01-15T23:23:21.807Z,98733.41
2023-01-15T23:27:23.622Z,98736.31
2023-01-15T23:31:25.711Z,98750.50
2023-01-15T23:35:27.473Z,98744.22
2023-01-15T23:39:29.212Z,98736.28
2023-01-15T23:43:49.267Z,98727.63
2023-01-15T23:47:51.108Z,98726.31
2023-01-15T23:51:52.921Z,98716.22
2023-01-15T23:55:57.913Z,98721.34
2023-01-15T23:59:59.672Z,98730.72
